sensor_id;sensor_type;location;lat;lon;timestamp;pressure;altitude;pressure_sealevel;temperature;humidity
76195;BME280;64964;48.694;21.206;2023-06-14T00:01:00;97761.91;;;13.85;66.71
76195;BME280;64964;48.694;21.206;2023-06-14T00:03:28;97754.09;;;13.83;66.72
76195;BME280;64964;48.694;21.206;2023-06-14T00:05:54;97751.66;;;13.82;66.64
76195;BME280;64964;48.694;21.206;2023-06-14T00:08:19;97753.72;;;13.80;67.44
76195;BME280;64964;48.694;21.206;2023-06-14T00:10:46;97747.16;;;13.82;66.81
76195;BME280;64964;48.694;21.206;2023-06-14T00:13:12;97738.16;;;13.77;67.16
76195;BME280;64964;48.694;21.206;2023-06-14T00:15:38;97744.50;;;13.82;67.01
76195;BME280;64964;48.694;21.206;2023-06-14T00:18:04;97748.63;;;13.85;67.18
76195;BME280;64964;48.694;21.206;2023-06-14T00:20:31;97751.06;;;13.86;66.76
76195;BME280;64964;48.694;21.206;2023-06-14T00:23:01;97740.59;;;13.78;66.62
76195;BME280;64964;48.694;21.206;2023-06-14T00:25:26;97745.97;;;13.85;66.81
76195;BME280;64964;48.694;21.206;2023-06-14T00:27:53;97756.59;;;13.85;66.86
76195;BME280;64964;48.694;21.206;2023-06-14T00:30:19;97760.88;;;13.86;66.60
76195;BME280;64964;48.694;21.206;2023-06-14T00:32:45;97753.72;;;13.86;66.80
76195;BME280;64964;48.694;21.206;2023-06-14T00:35:10;97755.56;;;13.86;66.94
76195;BME280;64964;48.694;21.206;2023-06-14T00:37:36;97737.16;;;13.84;66.72
76195;BME280;64964;48.694;21.206;2023-06-14T00:40:02;97723.03;;;13.77;66.68
76195;BME280;64964;48.694;21.206;2023-06-14T00:42:29;97745.56;;;13.88;66.74
76195;BME280;64964;48.694;21.206;2023-06-14T00:44:55;97733.06;;;13.82;66.82
76195;BME280;64964;48.694;21.206;2023-06-14T00:47:21;97729.16;;;13.78;66.60
76195;BME280;64964;48.694;21.206;2023-06-14T00:49:47;97745.97;;;13.91;66.60
76195;BME280;64964;48.694;21.206;2023-06-14T00:52:14;97740.44;;;13.86;66.68
76195;BME280;64964;48.694;21.206;2023-06-14T00:54:40;97746.38;;;13.88;66.88
76195;BME280;64964;48.694;21.206;2023-06-14T00:57:06;97723.63;;;13.79;66.63
76195;BME280;64964;48.694;21.206;2023-06-14T00:59:32;97735.34;;;13.85;66.66
76195;BME280;64964;48.694;21.206;2023-06-14T01:01:58;97678.94;;;13.48;66.64
76195;BME280;64964;48.694;21.206;2023-06-14T01:04:23;97734.75;;;13.89;66.66
76195;BME280;64964;48.694;21.206;2023-06-14T01:07:02;97731.44;;;13.87;66.75
76195;BME280;64964;48.694;21.206;2023-06-14T01:15:02;97714.06;;;13.85;67.15
76195;BME280;64964;48.694;21.206;2023-06-14T01:17:28;97709.38;;;13.87;66.51
76195;BME280;64964;48.694;21.206;2023-06-14T01:19:58;97707.72;;;13.86;66.73
76195;BME280;64964;48.694;21.206;2023-06-14T01:22:28;97707.09;;;13.77;66.94
76195;BME280;64964;48.694;21.206;2023-06-14T01:24:54;97717.16;;;13.88;66.61
76195;BME280;64964;48.694;21.206;2023-06-14T01:27:24;97722.03;;;13.85;66.96
76195;BME280;64964;48.694;21.206;2023-06-14T01:29:54;97700.09;;;13.69;66.90
76195;BME280;64964;48.694;21.206;2023-06-14T01:32:23;97701.75;;;13.77;66.81
76195;BME280;64964;48.694;21.206;2023-06-14T01:34:49;97714.66;;;13.80;66.70
76195;BME280;64964;48.694;21.206;2023-06-14T01:37:15;97719.78;;;13.82;67.00
76195;BME280;64964;48.694;21.206;2023-06-14T01:39:43;97718.75;;;13.83;66.92
76195;BME280;64964;48.694;21.206;2023-06-14T01:42:09;97722.03;;;13.85;67.03
76195;BME280;64964;48.694;21.206;2023-06-14T01:44:36;97724.69;;;13.85;67.08
76195;BME280;64964;48.694;21.206;2023-06-14T01:47:02;97719.56;;;13.83;66.90
76195;BME280;64964;48.694;21.206;2023-06-14T01:49:28;97722.03;;;13.85;66.72
76195;BME280;64964;48.694;21.206;2023-06-14T01:51:53;97723.06;;;13.84;66.79
76195;BME280;64964;48.694;21.206;2023-06-14T01:54:18;97729.38;;;13.83;66.86
76195;BME280;64964;48.694;21.206;2023-06-14T01:56:44;97722.44;;;13.82;66.98
76195;BME280;64964;48.694;21.206;2023-06-14T01:59:09;97721.22;;;13.84;66.60
76195;BME280;64964;48.694;21.206;2023-06-14T02:01:35;97723.84;;;13.78;67.47
76195;BME280;64964;48.694;21.206;2023-06-14T02:04:01;97724.66;;;13.78;66.85
76195;BME280;64964;48.694;21.206;2023-06-14T02:06:27;97713.38;;;13.69;67.06
76195;BME280;64964;48.694;21.206;2023-06-14T02:08:53;97727.69;;;13.75;67.40
76195;BME280;64964;48.694;21.206;2023-06-14T02:11:18;97719.72;;;13.68;67.57
76195;BME280;64964;48.694;21.206;2023-06-14T02:13:44;97727.31;;;13.78;67.13
76195;BME280;64964;48.694;21.206;2023-06-14T02:16:10;97723.19;;;13.69;67.13
76195;BME280;64964;48.694;21.206;2023-06-14T02:18:36;97727.69;;;13.75;66.90
76195;BME280;64964;48.694;21.206;2023-06-14T02:21:01;97725.03;;;13.75;66.92
76195;BME280;64964;48.694;21.206;2023-06-14T02:23:26;97726.88;;;13.75;67.08
76195;BME280;64964;48.694;21.206;2023-06-14T02:25:52;97736.53;;;13.82;67.26
76195;BME280;64964;48.694;21.206;2023-06-14T02:28:17;97735.50;;;13.83;66.87
76195;BME280;64964;48.694;21.206;2023-06-14T02:30:43;97737.59;;;13.88;66.94
76195;BME280;64964;48.694;21.206;2023-06-14T02:33:08;97744.56;;;13.89;66.60
76195;BME280;64964;48.694;21.206;2023-06-14T02:35:37;97742.28;;;13.86;66.86
76195;BME280;64964;48.694;21.206;2023-06-14T02:38:02;97714.78;;;13.65;66.85
76195;BME280;64964;48.694;21.206;2023-06-14T02:40:28;97742.06;;;13.87;66.86
76195;BME280;64964;48.694;21.206;2023-06-14T02:42:53;97743.69;;;13.82;66.67
76195;BME280;64964;48.694;21.206;2023-06-14T02:45:18;97748.63;;;13.85;66.72
76195;BME280;64964;48.694;21.206;2023-06-14T02:47:45;97740.41;;;13.80;66.51
76195;BME280;64964;48.694;21.206;2023-06-14T02:50:10;97754.16;;;13.90;66.80
76195;BME280;64964;48.694;21.206;2023-06-14T02:52:36;97756.00;;;13.89;66.80
76195;BME280;64964;48.694;21.206;2023-06-14T02:55:02;97753.34;;;13.89;66.73
76195;BME280;64964;48.694;21.206;2023-06-14T02:57:27;97750.47;;;13.91;66.53
76195;BME280;64964;48.694;21.206;2023-06-14T02:59:52;97751.94;;;13.93;67.00
76195;BME280;64964;48.694;21.206;2023-06-14T03:02:18;97753.94;;;13.91;66.44
76195;BME280;64964;48.694;21.206;2023-06-14T03:04:43;97762.56;;;13.93;66.34
76195;BME280;64964;48.694;21.206;2023-06-14T03:07:09;97749.88;;;13.89;66.51
76195;BME280;64964;48.694;21.206;2023-06-14T03:09:38;97748.63;;;13.85;66.47
76195;BME280;64964;48.694;21.206;2023-06-14T03:12:05;97752.91;;;13.86;66.29
76195;BME280;64964;48.694;21.206;2023-06-14T03:14:35;97763.59;;;13.92;66.31
76195;BME280;64964;48.694;21.206;2023-06-14T03:17:00;97767.25;;;13.91;66.30
76195;BME280;64964;48.694;21.206;2023-06-14T03:19:26;97758.00;;;13.87;66.65
76195;BME280;64964;48.694;21.206;2023-06-14T03:21:52;97768.69;;;13.94;66.38
76195;BME280;64964;48.694;21.206;2023-06-14T03:24:18;97761.75;;;13.93;66.55
76195;BME280;64964;48.694;21.206;2023-06-14T03:26:45;97740.00;;;13.83;66.36
76195;BME280;64964;48.694;21.206;2023-06-14T03:29:10;97765.81;;;13.95;66.39
76195;BME280;64964;48.694;21.206;2023-06-14T03:31:35;97766.47;;;13.98;66.78
76195;BME280;64964;48.694;21.206;2023-06-14T03:34:01;97770.97;;;13.97;66.37
76195;BME280;64964;48.694;21.206;2023-06-14T03:36:27;97752.53;;;13.89;66.41
76195;BME280;64964;48.694;21.206;2023-06-14T03:38:55;97760.94;;;13.99;66.64
76195;BME280;64964;48.694;21.206;2023-06-14T03:41:21;97763.44;;;14.01;66.56
76195;BME280;64964;48.694;21.206;2023-06-14T03:43:46;97752.53;;;13.95;66.41
76195;BME280;64964;48.694;21.206;2023-06-14T03:46:12;97767.91;;;14.00;66.26
76195;BME280;64964;48.694;21.206;2023-06-14T03:48:37;97770.97;;;14.04;66.32
76195;BME280;64964;48.694;21.206;2023-06-14T03:51:04;97770.81;;;14.05;66.75
76195;BME280;64964;48.694;21.206;2023-06-14T03:53:30;97767.13;;;14.06;66.55
76195;BME280;64964;48.694;21.206;2023-06-14T03:55:55;97772.22;;;14.08;66.77
76195;BME280;64964;48.694;21.206;2023-06-14T03:58:22;97772.22;;;14.08;66.54
76195;BME280;64964;48.694;21.206;2023-06-14T04:00:47;97756.66;;;13.98;66.42
76195;BME280;64964;48.694;21.206;2023-06-14T04:03:13;97773.91;;;14.09;66.18
76195;BME280;64964;48.694;21.206;2023-06-14T04:05:39;97773.63;;;14.04;66.90
76195;BME280;64964;48.694;21.206;2023-06-14T04:08:07;97778.13;;;14.03;66.41
76195;BME280;64964;48.694;21.206;2023-06-14T04:10:34;97766.25;;;13.99;66.49
76195;BME280;64964;48.694;21.206;2023-06-14T04:12:59;97754.59;;;13.93;66.47
76195;BME280;64964;48.694;21.206;2023-06-14T04:15:24;97783.66;;;14.02;66.53
76195;BME280;64964;48.694;21.206;2023-06-14T04:17:50;97786.94;;;14.04;66.46
76195;BME280;64964;48.694;21.206;2023-06-14T04:20:16;97789.41;;;14.05;66.50
76195;BME280;64964;48.694;21.206;2023-06-14T04:22:42;97789.16;;;14.00;66.89
76195;BME280;64964;48.694;21.206;2023-06-14T04:25:08;97781.59;;;13.97;67.46
76195;BME280;64964;48.694;21.206;2023-06-14T04:27:33;97770.75;;;13.92;66.72
76195;BME280;64964;48.694;21.206;2023-06-14T04:30:02;97789.78;;;14.02;66.89
76195;BME280;64964;48.694;21.206;2023-06-14T04:32:28;97792.88;;;14.06;66.62
76195;BME280;64964;48.694;21.206;2023-06-14T04:34:57;97783.69;;;14.08;66.88
76195;BME280;64964;48.694;21.206;2023-06-14T04:37:24;97784.94;;;14.12;66.83
76195;BME280;64964;48.694;21.206;2023-06-14T04:39:49;97783.50;;;14.16;66.52
76195;BME280;64964;48.694;21.206;2023-06-14T04:42:17;97782.31;;;14.19;66.37
76195;BME280;64964;48.694;21.206;2023-06-14T04:44:46;97784.00;;;14.27;66.15
76195;BME280;64964;48.694;21.206;2023-06-14T04:47:13;97777.25;;;14.31;66.29
76195;BME280;64964;48.694;21.206;2023-06-14T04:49:39;97782.19;;;14.34;65.87
76195;BME280;64964;48.694;21.206;2023-06-14T04:52:06;97791.97;;;14.33;66.03
76195;BME280;64964;48.694;21.206;2023-06-14T04:54:32;97778.25;;;14.23;65.83
76195;BME280;64964;48.694;21.206;2023-06-14T04:56:59;97794.63;;;14.27;66.00
76195;BME280;64964;48.694;21.206;2023-06-14T04:59:24;97787.28;;;14.35;65.95
76195;BME280;64964;48.694;21.206;2023-06-14T05:01:50;97791.16;;;14.33;65.84
76195;BME280;64964;48.694;21.206;2023-06-14T05:04:16;97796.31;;;14.41;65.81
76195;BME280;64964;48.694;21.206;2023-06-14T05:06:43;97799.19;;;14.46;65.84
76195;BME280;64964;48.694;21.206;2023-06-14T05:09:15;97810.72;;;14.53;66.03
76195;BME280;64964;48.694;21.206;2023-06-14T05:11:43;97803.59;;;14.60;65.31
76195;BME280;64964;48.694;21.206;2023-06-14T05:14:10;97809.09;;;14.59;65.35
76195;BME280;64964;48.694;21.206;2023-06-14T05:16:35;97798.88;;;14.56;65.19
76195;BME280;64964;48.694;21.206;2023-06-14T05:19:02;97783.09;;;14.54;65.50
76195;BME280;64964;48.694;21.206;2023-06-14T05:21:29;97796.66;;;14.73;66.11
76195;BME280;64964;48.694;21.206;2023-06-14T05:23:55;97800.34;;;14.78;65.96
76195;BME280;64964;48.694;21.206;2023-06-14T05:26:21;97785.38;;;14.70;67.06
76195;BME280;64964;48.694;21.206;2023-06-14T05:28:48;97795.66;;;14.87;66.05
76195;BME280;64964;48.694;21.206;2023-06-14T05:31:14;97796.09;;;15.04;66.12
76195;BME280;64964;48.694;21.206;2023-06-14T05:33:40;97778.69;;;15.08;66.07
76195;BME280;64964;48.694;21.206;2023-06-14T05:36:05;97795.31;;;15.23;66.08
76195;BME280;64964;48.694;21.206;2023-06-14T05:38:31;97805.94;;;15.30;65.18
76195;BME280;64964;48.694;21.206;2023-06-14T05:40:56;97801.44;;;15.37;65.52
76195;BME280;64964;48.694;21.206;2023-06-14T05:43:21;97814.78;;;15.37;65.51
76195;BME280;64964;48.694;21.206;2023-06-14T05:45:46;97806.38;;;15.47;65.02
76195;BME280;64964;48.694;21.206;2023-06-14T05:48:12;97816.22;;;15.59;65.07
76195;BME280;64964;48.694;21.206;2023-06-14T05:50:37;97807.22;;;15.74;65.07
76195;BME280;64964;48.694;21.206;2023-06-14T05:53:03;97807.59;;;15.90;65.37
76195;BME280;64964;48.694;21.206;2023-06-14T05:55:28;97803.84;;;16.11;63.61
76195;BME280;64964;48.694;21.206;2023-06-14T05:57:53;97810.59;;;16.27;62.44
76195;BME280;64964;48.694;21.206;2023-06-14T06:00:19;97813.66;;;16.24;63.50
76195;BME280;64964;48.694;21.206;2023-06-14T06:02:45;97814.97;;;16.02;64.29
76195;BME280;64964;48.694;21.206;2023-06-14T06:05:12;97816.59;;;15.96;64.51
76195;BME280;64964;48.694;21.206;2023-06-14T06:07:37;97821.72;;;16.04;64.39
76195;BME280;64964;48.694;21.206;2023-06-14T06:10:05;97806.13;;;16.14;64.09
76195;BME280;64964;48.694;21.206;2023-06-14T06:12:31;97818.34;;;16.35;64.25
76195;BME280;64964;48.694;21.206;2023-06-14T06:14:57;97803.75;;;16.44;64.03
76195;BME280;64964;48.694;21.206;2023-06-14T06:17:23;97813.47;;;16.71;63.43
76195;BME280;64964;48.694;21.206;2023-06-14T06:19:48;97816.31;;;16.89;63.07
76195;BME280;64964;48.694;21.206;2023-06-14T06:22:14;97804.34;;;16.91;63.04
76195;BME280;64964;48.694;21.206;2023-06-14T06:24:39;97820.13;;;17.00;62.38
76195;BME280;64964;48.694;21.206;2023-06-14T06:27:05;97822.47;;;16.89;62.59
76195;BME280;64964;48.694;21.206;2023-06-14T06:29:33;97825.75;;;17.23;63.04
76195;BME280;64964;48.694;21.206;2023-06-14T06:31:58;97830.88;;;17.50;62.01
76195;BME280;64964;48.694;21.206;2023-06-14T06:34:23;97826.78;;;17.72;60.98
76195;BME280;64964;48.694;21.206;2023-06-14T06:36:49;97827.69;;;18.09;60.16
76195;BME280;64964;48.694;21.206;2023-06-14T06:39:14;97830.00;;;18.42;60.27
76195;BME280;64964;48.694;21.206;2023-06-14T06:41:40;97813.25;;;18.65;58.91
76195;BME280;64964;48.694;21.206;2023-06-14T06:44:06;97818.97;;;18.87;58.26
76195;BME280;64964;48.694;21.206;2023-06-14T06:46:32;97835.16;;;19.11;58.03
76195;BME280;64964;48.694;21.206;2023-06-14T06:48:58;97844.28;;;19.33;57.87
76195;BME280;64964;48.694;21.206;2023-06-14T06:51:23;97840.38;;;19.59;57.41
76195;BME280;64964;48.694;21.206;2023-06-14T06:53:53;97836.34;;;19.80;54.32
76195;BME280;64964;48.694;21.206;2023-06-14T06:56:19;97838.44;;;20.02;55.31
76195;BME280;64964;48.694;21.206;2023-06-14T06:58:45;97834.50;;;19.93;55.01
76195;BME280;64964;48.694;21.206;2023-06-14T07:01:10;97844.16;;;20.17;55.64
76195;BME280;64964;48.694;21.206;2023-06-14T07:03:36;97821.53;;;20.13;54.95
76195;BME280;64964;48.694;21.206;2023-06-14T07:06:02;97847.19;;;20.21;54.45
76195;BME280;64964;48.694;21.206;2023-06-14T07:08:27;97838.56;;;19.83;54.45
76195;BME280;64964;48.694;21.206;2023-06-14T07:10:53;97841.34;;;19.77;54.63
76195;BME280;64964;48.694;21.206;2023-06-14T07:13:18;97845.91;;;19.88;54.77
76195;BME280;64964;48.694;21.206;2023-06-14T07:15:44;97836.47;;;19.97;54.38
76195;BME280;64964;48.694;21.206;2023-06-14T07:18:10;97846.50;;;20.02;52.75
76195;BME280;64964;48.694;21.206;2023-06-14T07:20:35;97854.06;;;19.81;51.92
76195;BME280;64964;48.694;21.206;2023-06-14T07:23:03;97850.03;;;20.02;53.32
76195;BME280;64964;48.694;21.206;2023-06-14T07:25:28;97848.25;;;19.96;52.38
76195;BME280;64964;48.694;21.206;2023-06-14T07:27:54;97852.09;;;20.00;53.75
76195;BME280;64964;48.694;21.206;2023-06-14T07:30:20;97852.31;;;20.10;54.17
76195;BME280;64964;48.694;21.206;2023-06-14T07:32:45;97846.38;;;20.32;53.45
76195;BME280;64964;48.694;21.206;2023-06-14T07:35:11;97850.84;;;19.91;53.35
76195;BME280;64964;48.694;21.206;2023-06-14T07:37:36;97843.25;;;20.11;53.91
76195;BME280;64964;48.694;21.206;2023-06-14T07:40:01;97854.06;;;20.52;54.02
76195;BME280;64964;48.694;21.206;2023-06-14T07:42:33;97858.78;;;20.73;52.61
76195;BME280;64964;48.694;21.206;2023-06-14T07:44:58;97864.59;;;20.53;51.38
76195;BME280;64964;48.694;21.206;2023-06-14T07:47:23;97866.91;;;20.14;49.71
76195;BME280;64964;48.694;21.206;2023-06-14T07:49:49;97864.00;;;20.16;51.15
76195;BME280;64964;48.694;21.206;2023-06-14T07:52:14;97859.34;;;20.00;51.53
76195;BME280;64964;48.694;21.206;2023-06-14T07:54:39;97862.03;;;19.46;51.57
76195;BME280;64964;48.694;21.206;2023-06-14T07:57:06;97858.91;;;19.07;52.97
76195;BME280;64964;48.694;21.206;2023-06-14T07:59:32;97865.91;;;19.50;53.64
76195;BME280;64964;48.694;21.206;2023-06-14T08:01:57;97862.00;;;19.76;52.89
76195;BME280;64964;48.694;21.206;2023-06-14T08:04:22;97830.31;;;19.43;52.42
76195;BME280;64964;48.694;21.206;2023-06-14T08:06:50;97868.19;;;19.88;52.17
76195;BME280;64964;48.694;21.206;2023-06-14T08:09:15;97855.59;;;20.01;53.01
76195;BME280;64964;48.694;21.206;2023-06-14T08:11:41;97861.34;;;20.16;52.61
76195;BME280;64964;48.694;21.206;2023-06-14T08:14:08;97860.72;;;20.26;52.82
76195;BME280;64964;48.694;21.206;2023-06-14T08:16:34;97864.91;;;20.45;52.67
76195;BME280;64964;48.694;21.206;2023-06-14T08:18:59;97858.34;;;20.64;53.14
76195;BME280;64964;48.694;21.206;2023-06-14T08:21:24;97854.91;;;20.40;51.75
76195;BME280;64964;48.694;21.206;2023-06-14T08:23:57;97866.31;;;20.59;52.81
76195;BME280;64964;48.694;21.206;2023-06-14T08:26:22;97863.63;;;20.59;51.91
76195;BME280;64964;48.694;21.206;2023-06-14T08:28:48;97858.59;;;20.63;51.22
76195;BME280;64964;48.694;21.206;2023-06-14T08:31:13;97862.97;;;19.82;51.26
76195;BME280;64964;48.694;21.206;2023-06-14T08:33:39;97870.66;;;20.37;52.78
76195;BME280;64964;48.694;21.206;2023-06-14T08:36:08;97841.22;;;20.42;51.97
76195;BME280;64964;48.694;21.206;2023-06-14T08:38:33;97864.25;;;20.50;51.34
76195;BME280;64964;48.694;21.206;2023-06-14T08:41:00;97853.13;;;20.58;51.46
76195;BME280;64964;48.694;21.206;2023-06-14T08:43:26;97873.25;;;20.84;50.86
76195;BME280;64964;48.694;21.206;2023-06-14T08:45:58;97820.91;;;20.46;50.03
76195;BME280;64964;48.694;21.206;2023-06-14T08:48:26;97877.78;;;20.95;50.70
76195;BME280;64964;48.694;21.206;2023-06-14T08:50:56;97870.31;;;20.57;49.82
76195;BME280;64964;48.694;21.206;2023-06-14T08:53:28;97879.47;;;20.73;50.21
76195;BME280;64964;48.694;21.206;2023-06-14T08:55:58;97873.69;;;20.52;49.36
76195;BME280;64964;48.694;21.206;2023-06-14T08:58:27;97866.69;;;20.16;50.23
76195;BME280;64964;48.694;21.206;2023-06-14T09:00:54;97870.53;;;19.73;50.77
76195;BME280;64964;48.694;21.206;2023-06-14T09:03:21;97870.44;;;20.03;51.12
76195;BME280;64964;48.694;21.206;2023-06-14T09:05:47;97865.78;;;19.99;51.23
76195;BME280;64964;48.694;21.206;2023-06-14T09:08:13;97867.75;;;20.15;51.04
76195;BME280;64964;48.694;21.206;2023-06-14T09:10:39;97880.44;;;20.31;51.30
76195;BME280;64964;48.694;21.206;2023-06-14T09:13:06;97870.53;;;20.32;52.00
76195;BME280;64964;48.694;21.206;2023-06-14T09:15:32;97840.16;;;20.31;52.49
76195;BME280;64964;48.694;21.206;2023-06-14T09:17:58;97872.75;;;20.58;52.73
76195;BME280;64964;48.694;21.206;2023-06-14T09:20:26;97869.44;;;20.68;52.71
76195;BME280;64964;48.694;21.206;2023-06-14T09:22:51;97855.53;;;20.83;52.92
76195;BME280;64964;48.694;21.206;2023-06-14T09:25:17;97867.25;;;20.94;49.96
76195;BME280;64964;48.694;21.206;2023-06-14T09:27:45;97871.41;;;21.13;51.40
76195;BME280;64964;48.694;21.206;2023-06-14T09:30:12;97867.06;;;21.24;51.06
76195;BME280;64964;48.694;21.206;2023-06-14T09:35:07;97862.38;;;21.19;50.28
76195;BME280;64964;48.694;21.206;2023-06-14T09:37:34;97868.31;;;21.33;50.34
76195;BME280;64964;48.694;21.206;2023-06-14T09:40:00;97864.66;;;21.39;50.52
76195;BME280;64964;48.694;21.206;2023-06-14T09:42:26;97871.00;;;21.33;50.02
76195;BME280;64964;48.694;21.206;2023-06-14T09:44:53;97867.59;;;21.54;50.77
76195;BME280;64964;48.694;21.206;2023-06-14T09:47:20;97873.69;;;21.33;49.11
76195;BME280;64964;48.694;21.206;2023-06-14T09:49:46;97876.06;;;21.18;48.63
76195;BME280;64964;48.694;21.206;2023-06-14T09:52:17;97856.91;;;21.14;46.93
76195;BME280;64964;48.694;21.206;2023-06-14T09:54:44;97864.97;;;21.14;48.81
76195;BME280;64964;48.694;21.206;2023-06-14T09:57:15;97871.53;;;20.78;47.39
76195;BME280;64964;48.694;21.206;2023-06-14T09:59:45;97873.88;;;20.74;48.16
76195;BME280;64964;48.694;21.206;2023-06-14T10:02:35;97872.75;;;20.99;48.76
76195;BME280;64964;48.694;21.206;2023-06-14T10:07:32;97871.97;;;21.15;47.88
76195;BME280;64964;48.694;21.206;2023-06-14T10:10:00;97860.25;;;21.33;48.24
76195;BME280;64964;48.694;21.206;2023-06-14T10:12:26;97877.88;;;21.41;47.53
76195;BME280;64964;48.694;21.206;2023-06-14T10:14:53;97879.81;;;21.17;47.21
76195;BME280;64964;48.694;21.206;2023-06-14T10:20:03;97875.00;;;21.19;46.80
76195;BME280;64964;48.694;21.206;2023-06-14T10:22:44;97830.75;;;20.81;48.09
76195;BME280;64964;48.694;21.206;2023-06-14T10:25:29;97865.50;;;21.28;48.34
76195;BME280;64964;48.694;21.206;2023-06-14T10:28:17;97876.41;;;21.50;47.95
76195;BME280;64964;48.694;21.206;2023-06-14T10:31:05;97875.28;;;21.62;45.92
76195;BME280;64964;48.694;21.206;2023-06-14T10:33:33;97876.19;;;21.85;46.76
76195;BME280;64964;48.694;21.206;2023-06-14T10:36:28;97869.91;;;21.62;45.12
76195;BME280;64964;48.694;21.206;2023-06-14T10:39:06;97873.31;;;21.58;44.57
76195;BME280;64964;48.694;21.206;2023-06-14T10:41:36;97863.94;;;21.77;44.56
76195;BME280;64964;48.694;21.206;2023-06-14T10:46:39;97865.75;;;21.72;45.00
76195;BME280;64964;48.694;21.206;2023-06-14T10:49:06;97871.13;;;21.55;45.54
76195;BME280;64964;48.694;21.206;2023-06-14T10:51:39;97865.72;;;21.38;45.60
76195;BME280;64964;48.694;21.206;2023-06-14T10:54:12;97849.91;;;21.58;45.84
76195;BME280;64964;48.694;21.206;2023-06-14T10:56:52;97854.16;;;21.88;45.87
76195;BME280;64964;48.694;21.206;2023-06-14T10:59:20;97857.66;;;22.05;45.98
76195;BME280;64964;48.694;21.206;2023-06-14T11:02:14;97854.50;;;21.58;45.85
76195;BME280;64964;48.694;21.206;2023-06-14T11:04:50;97812.34;;;21.18;45.37
76195;BME280;64964;48.694;21.206;2023-06-14T11:10:17;97860.59;;;20.96;46.38
76195;BME280;64964;48.694;21.206;2023-06-14T11:12:48;97855.44;;;20.78;46.17
76195;BME280;64964;48.694;21.206;2023-06-14T11:15:13;97853.69;;;20.60;46.72
76195;BME280;64964;48.694;21.206;2023-06-14T11:17:39;97855.72;;;20.29;46.73
76195;BME280;64964;48.694;21.206;2023-06-14T11:20:12;97850.56;;;20.51;47.48
76195;BME280;64964;48.694;21.206;2023-06-14T11:22:44;97848.00;;;20.45;47.31
76195;BME280;64964;48.694;21.206;2023-06-14T11:25:12;97855.81;;;20.58;47.04
76195;BME280;64964;48.694;21.206;2023-06-14T11:27:38;97844.53;;;20.84;47.84
76195;BME280;64964;48.694;21.206;2023-06-14T11:30:07;97816.97;;;20.77;47.10
76195;BME280;64964;48.694;21.206;2023-06-14T11:32:33;97848.41;;;21.05;47.13
76195;BME280;64964;48.694;21.206;2023-06-14T11:34:58;97848.31;;;21.00;45.95
76195;BME280;64964;48.694;21.206;2023-06-14T11:37:25;97844.91;;;20.76;44.72
76195;BME280;64964;48.694;21.206;2023-06-14T11:39:59;97838.72;;;20.76;45.57
76195;BME280;64964;48.694;21.206;2023-06-14T11:42:26;97826.03;;;20.59;45.63
76195;BME280;64964;48.694;21.206;2023-06-14T11:44:53;97835.78;;;20.77;45.46
76195;BME280;64964;48.694;21.206;2023-06-14T11:47:19;97830.28;;;21.12;46.42
76195;BME280;64964;48.694;21.206;2023-06-14T11:49:44;97834.72;;;21.35;46.12
76195;BME280;64964;48.694;21.206;2023-06-14T11:52:10;97827.97;;;21.33;44.87
76195;BME280;64964;48.694;21.206;2023-06-14T11:54:36;97824.25;;;21.22;44.42
76195;BME280;64964;48.694;21.206;2023-06-14T11:57:03;97836.53;;;21.18;44.32
76195;BME280;64964;48.694;21.206;2023-06-14T11:59:28;97778.28;;;20.90;44.59
76195;BME280;64964;48.694;21.206;2023-06-14T12:01:56;97839.56;;;21.50;45.19
76195;BME280;64964;48.694;21.206;2023-06-14T12:04:26;97812.59;;;21.45;45.08
76195;BME280;64964;48.694;21.206;2023-06-14T12:06:52;97833.91;;;21.35;44.18
76195;BME280;64964;48.694;21.206;2023-06-14T12:09:18;97836.88;;;21.50;44.44
76195;BME280;64964;48.694;21.206;2023-06-14T12:11:45;97839.25;;;21.63;44.31
76195;BME280;64964;48.694;21.206;2023-06-14T12:14:10;97815.34;;;21.67;45.23
76195;BME280;64964;48.694;21.206;2023-06-14T12:16:38;97833.03;;;21.80;44.21
76195;BME280;64964;48.694;21.206;2023-06-14T12:21:38;97829.75;;;21.44;43.50
76195;BME280;64964;48.694;21.206;2023-06-14T12:24:06;97824.72;;;21.19;44.75
76195;BME280;64964;48.694;21.206;2023-06-14T12:26:32;97823.50;;;21.10;44.86
76195;BME280;64964;48.694;21.206;2023-06-14T12:28:58;97816.53;;;21.26;43.77
76195;BME280;64964;48.694;21.206;2023-06-14T12:31:24;97814.19;;;21.01;43.19
76195;BME280;64964;48.694;21.206;2023-06-14T12:33:49;97814.47;;;21.16;44.58
76195;BME280;64964;48.694;21.206;2023-06-14T12:36:15;97810.25;;;21.20;44.92
76195;BME280;64964;48.694;21.206;2023-06-14T12:38:42;97806.63;;;21.14;43.98
76195;BME280;64964;48.694;21.206;2023-06-14T12:41:07;97804.25;;;21.01;43.87
76195;BME280;64964;48.694;21.206;2023-06-14T12:43:33;97817.25;;;21.21;44.54
76195;BME280;64964;48.694;21.206;2023-06-14T12:45:59;97821.88;;;21.37;44.94
76195;BME280;64964;48.694;21.206;2023-06-14T12:48:25;97805.25;;;21.12;43.24
76195;BME280;64964;48.694;21.206;2023-06-14T12:50:53;97816.03;;;21.29;43.96
76195;BME280;64964;48.694;21.206;2023-06-14T12:53:18;97811.44;;;21.41;44.15
76195;BME280;64964;48.694;21.206;2023-06-14T12:55:44;97800.03;;;21.51;43.82
76195;BME280;64964;48.694;21.206;2023-06-14T12:58:09;97800.50;;;21.64;44.39
76195;BME280;64964;48.694;21.206;2023-06-14T13:00:37;97787.44;;;21.73;44.24
76195;BME280;64964;48.694;21.206;2023-06-14T13:03:03;97798.94;;;21.85;43.03
76195;BME280;64964;48.694;21.206;2023-06-14T13:05:28;97800.75;;;21.80;42.71
76195;BME280;64964;48.694;21.206;2023-06-14T13:07:53;97798.78;;;21.92;43.05
76195;BME280;64964;48.694;21.206;2023-06-14T13:10:19;97801.63;;;21.85;40.99